sensor_id;sensor_type;location;lat;lon;timestamp;temperature;humidity
56300;DHT22;42209;6.376;-10.782;2023-03-01T00:02:25;29.20;46.20
56300;DHT22;42209;6.376;-10.782;2023-03-01T00:04:54;29.10;45.60
56300;DHT22;42209;6.376;-10.782;2023-03-01T00:07:22;29.10;45.70
56300;DHT22;42209;6.376;-10.782;2023-03-01T00:09:50;29.20;45.50
56300;DHT22;42209;6.376;-10.782;2023-03-01T00:12:18;29.10;46.10
56300;DHT22;42209;6.376;-10.782;2023-03-01T00:14:46;29.10;46.30
56300;DHT22;42209;6.376;-10.782;2023-03-01T00:17:15;29.10;46.60
56300;DHT22;42209;6.376;-10.782;2023-03-01T00:19:43;29.10;46.20
56300;DHT22;42209;6.376;-10.782;2023-03-01T00:22:11;29.10;46.20
56300;DHT22;42209;6.376;-10.782;2023-03-01T00:24:39;29.10;46.10
56300;DHT22;42209;6.376;-10.782;2023-03-01T00:27:08;29.10;46.00
56300;DHT22;42209;6.376;-10.782;2023-03-01T00:29:37;29.10;46.10
56300;DHT22;42209;6.376;-10.782;2023-03-01T00:32:05;29.10;46.60
56300;DHT22;42209;6.376;-10.782;2023-03-01T00:34:33;29.10;46.70
56300;DHT22;42209;6.376;-10.782;2023-03-01T00:37:01;29.10;46.10
56300;DHT22;42209;6.376;-10.782;2023-03-01T00:39:29;29.10;46.80
56300;DHT22;42209;6.376;-10.782;2023-03-01T00:41:58;29.10;45.90
56300;DHT22;42209;6.376;-10.782;2023-03-01T00:44:26;29.10;47.10
56300;DHT22;42209;6.376;-10.782;2023-03-01T00:46:54;29.00;47.40
56300;DHT22;42209;6.376;-10.782;2023-03-01T00:49:22;29.00;47.60
56300;DHT22;42209;6.376;-10.782;2023-03-01T00:51:50;29.00;46.60
56300;DHT22;42209;6.376;-10.782;2023-03-01T00:54:19;29.00;47.00
56300;DHT22;42209;6.376;-10.782;2023-03-01T00:56:47;29.00;48.00
56300;DHT22;42209;6.376;-10.782;2023-03-01T00:59:15;29.00;48.60
56300;DHT22;42209;6.376;-10.782;2023-03-01T01:01:43;29.00;47.90
56300;DHT22;42209;6.376;-10.782;2023-03-01T01:04:13;29.00;48.50
56300;DHT22;42209;6.376;-10.782;2023-03-01T01:06:46;29.00;48.20
56300;DHT22;42209;6.376;-10.782;2023-03-01T01:09:16;29.00;47.60
56300;DHT22;42209;6.376;-10.782;2023-03-01T01:11:47;29.00;47.50
56300;DHT22;42209;6.376;-10.782;2023-03-01T01:14:17;29.00;48.20
56300;DHT22;42209;6.376;-10.782;2023-03-01T01:16:46;29.00;47.60
56300;DHT22;42209;6.376;-10.782;2023-03-01T01:19:14;29.00;47.10
56300;DHT22;42209;6.376;-10.782;2023-03-01T01:21:43;29.00;47.70
56300;DHT22;42209;6.376;-10.782;2023-03-01T01:24:12;29.00;48.00
56300;DHT22;42209;6.376;-10.782;2023-03-01T01:26:41;29.00;48.20
56300;DHT22;42209;6.376;-10.782;2023-03-01T01:29:09;29.00;47.60
56300;DHT22;42209;6.376;-10.782;2023-03-01T01:31:40;29.00;47.90
56300;DHT22;42209;6.376;-10.782;2023-03-01T01:34:17;29.00;46.50
56300;DHT22;42209;6.376;-10.782;2023-03-01T01:36:50;29.00;47.90
56300;DHT22;42209;6.376;-10.782;2023-03-01T01:39:20;29.00;47.80
56300;DHT22;42209;6.376;-10.782;2023-03-01T01:41:49;29.00;47.20
56300;DHT22;42209;6.376;-10.782;2023-03-01T01:44:21;29.00;48.40
56300;DHT22;42209;6.376;-10.782;2023-03-01T01:47:12;29.00;48.50
56300;DHT22;42209;6.376;-10.782;2023-03-01T01:49:55;29.00;48.20
56300;DHT22;42209;6.376;-10.782;2023-03-01T01:52:27;29.00;48.60
56300;DHT22;42209;6.376;-10.782;2023-03-01T01:55:04;29.00;48.00
56300;DHT22;42209;6.376;-10.782;2023-03-01T01:57:42;29.00;47.70
56300;DHT22;42209;6.376;-10.782;2023-03-01T02:00:22;29.00;48.30
56300;DHT22;42209;6.376;-10.782;2023-03-01T02:02:59;29.00;48.40
56300;DHT22;42209;6.376;-10.782;2023-03-01T02:08:14;29.00;48.80
56300;DHT22;42209;6.376;-10.782;2023-03-01T02:10:45;29.00;48.80
56300;DHT22;42209;6.376;-10.782;2023-03-01T02:13:14;29.00;48.20
56300;DHT22;42209;6.376;-10.782;2023-03-01T02:15:42;29.00;48.00
56300;DHT22;42209;6.376;-10.782;2023-03-01T02:18:13;29.00;49.30
56300;DHT22;42209;6.376;-10.782;2023-03-01T02:21:05;29.00;49.10
56300;DHT22;42209;6.376;-10.782;2023-03-01T02:23:36;29.00;49.20
56300;DHT22;42209;6.376;-10.782;2023-03-01T02:26:21;28.90;49.00
56300;DHT22;42209;6.376;-10.782;2023-03-01T02:28:51;29.00;48.90
56300;DHT22;42209;6.376;-10.782;2023-03-01T02:31:21;28.90;48.60
56300;DHT22;42209;6.376;-10.782;2023-03-01T02:33:49;29.00;48.30
56300;DHT22;42209;6.376;-10.782;2023-03-01T02:36:24;29.00;49.40
56300;DHT22;42209;6.376;-10.782;2023-03-01T02:38:57;28.90;48.40
56300;DHT22;42209;6.376;-10.782;2023-03-01T02:41:30;29.00;49.50
56300;DHT22;42209;6.376;-10.782;2023-03-01T02:43:59;29.00;49.00
56300;DHT22;42209;6.376;-10.782;2023-03-01T02:46:28;28.90;49.10
56300;DHT22;42209;6.376;-10.782;2023-03-01T02:48:58;29.00;49.30
56300;DHT22;42209;6.376;-10.782;2023-03-01T02:51:52;28.90;49.20
56300;DHT22;42209;6.376;-10.782;2023-03-01T02:56:59;28.90;49.90
56300;DHT22;42209;6.376;-10.782;2023-03-01T02:59:33;29.00;50.10
56300;DHT22;42209;6.376;-10.782;2023-03-01T03:02:01;28.90;50.00
56300;DHT22;42209;6.376;-10.782;2023-03-01T03:04:30;28.90;50.20
56300;DHT22;42209;6.376;-10.782;2023-03-01T03:06:58;28.90;50.00
56300;DHT22;42209;6.376;-10.782;2023-03-01T03:09:26;28.90;50.20
56300;DHT22;42209;6.376;-10.782;2023-03-01T03:11:56;28.90;50.20
56300;DHT22;42209;6.376;-10.782;2023-03-01T03:14:25;28.90;50.40
56300;DHT22;42209;6.376;-10.782;2023-03-01T03:16:53;28.90;51.10
56300;DHT22;42209;6.376;-10.782;2023-03-01T03:19:22;28.90;51.00
56300;DHT22;42209;6.376;-10.782;2023-03-01T03:21:50;28.90;50.60
56300;DHT22;42209;6.376;-10.782;2023-03-01T03:24:18;28.90;50.80
56300;DHT22;42209;6.376;-10.782;2023-03-01T03:26:46;28.90;51.10
56300;DHT22;42209;6.376;-10.782;2023-03-01T03:29:14;28.90;51.30
56300;DHT22;42209;6.376;-10.782;2023-03-01T03:31:42;28.90;51.10
56300;DHT22;42209;6.376;-10.782;2023-03-01T03:34:11;28.90;51.00
56300;DHT22;42209;6.376;-10.782;2023-03-01T03:36:39;28.90;50.40
56300;DHT22;42209;6.376;-10.782;2023-03-01T03:39:07;28.80;50.90
56300;DHT22;42209;6.376;-10.782;2023-03-01T03:41:35;28.80;50.40
56300;DHT22;42209;6.376;-10.782;2023-03-01T03:44:04;28.80;50.10
56300;DHT22;42209;6.376;-10.782;2023-03-01T03:46:32;28.80;50.20
56300;DHT22;42209;6.376;-10.782;2023-03-01T03:49:00;28.80;50.10
56300;DHT22;42209;6.376;-10.782;2023-03-01T03:51:29;28.80;49.70
56300;DHT22;42209;6.376;-10.782;2023-03-01T03:53:57;28.80;49.80
56300;DHT22;42209;6.376;-10.782;2023-03-01T03:56:25;28.80;50.00
56300;DHT22;42209;6.376;-10.782;2023-03-01T03:58:55;28.80;50.10
56300;DHT22;42209;6.376;-10.782;2023-03-01T04:01:23;28.80;49.70
56300;DHT22;42209;6.376;-10.782;2023-03-01T04:03:51;28.80;49.80
56300;DHT22;42209;6.376;-10.782;2023-03-01T04:06:20;28.80;49.70
56300;DHT22;42209;6.376;-10.782;2023-03-01T04:08:48;28.80;49.20
56300;DHT22;42209;6.376;-10.782;2023-03-01T04:11:17;28.70;49.00
56300;DHT22;42209;6.376;-10.782;2023-03-01T04:13:45;28.80;49.00
56300;DHT22;42209;6.376;-10.782;2023-03-01T04:16:13;28.80;49.00
56300;DHT22;42209;6.376;-10.782;2023-03-01T04:18:41;28.80;49.00
56300;DHT22;42209;6.376;-10.782;2023-03-01T04:21:10;28.70;49.10
56300;DHT22;42209;6.376;-10.782;2023-03-01T04:23:38;28.80;49.00
56300;DHT22;42209;6.376;-10.782;2023-03-01T04:26:06;28.80;49.00
56300;DHT22;42209;6.376;-10.782;2023-03-01T04:28:40;28.80;48.90
56300;DHT22;42209;6.376;-10.782;2023-03-01T04:31:11;28.80;48.90
56300;DHT22;42209;6.376;-10.782;2023-03-01T04:33:47;28.70;49.00
56300;DHT22;42209;6.376;-10.782;2023-03-01T04:36:17;28.70;49.10
56300;DHT22;42209;6.376;-10.782;2023-03-01T04:38:46;28.80;49.30
56300;DHT22;42209;6.376;-10.782;2023-03-01T04:41:15;28.70;49.30
56300;DHT22;42209;6.376;-10.782;2023-03-01T04:43:44;28.70;49.20
56300;DHT22;42209;6.376;-10.782;2023-03-01T04:46:15;28.70;49.20
56300;DHT22;42209;6.376;-10.782;2023-03-01T04:48:44;28.70;49.20
56300;DHT22;42209;6.376;-10.782;2023-03-01T04:51:13;28.70;49.00
56300;DHT22;42209;6.376;-10.782;2023-03-01T04:53:42;28.70;48.90
56300;DHT22;42209;6.376;-10.782;2023-03-01T04:56:11;28.70;49.20
56300;DHT22;42209;6.376;-10.782;2023-03-01T04:58:40;28.70;49.10
56300;DHT22;42209;6.376;-10.782;2023-03-01T05:01:09;28.70;49.20
56300;DHT22;42209;6.376;-10.782;2023-03-01T05:03:37;28.70;49.20
56300;DHT22;42209;6.376;-10.782;2023-03-01T05:06:05;28.70;49.20
56300;DHT22;42209;6.376;-10.782;2023-03-01T05:08:33;28.70;49.30
56300;DHT22;42209;6.376;-10.782;2023-03-01T05:11:02;28.70;49.20
56300;DHT22;42209;6.376;-10.782;2023-03-01T05:13:30;28.70;49.60
56300;DHT22;42209;6.376;-10.782;2023-03-01T05:16:00;28.70;49.60
56300;DHT22;42209;6.376;-10.782;2023-03-01T05:18:32;28.70;49.30
56300;DHT22;42209;6.376;-10.782;2023-03-01T05:21:09;28.70;49.30
56300;DHT22;42209;6.376;-10.782;2023-03-01T05:23:38;28.70;49.40
56300;DHT22;42209;6.376;-10.782;2023-03-01T05:26:07;28.70;49.10
56300;DHT22;42209;6.376;-10.782;2023-03-01T05:28:52;28.70;49.40
56300;DHT22;42209;6.376;-10.782;2023-03-01T05:31:20;28.70;49.30
56300;DHT22;42209;6.376;-10.782;2023-03-01T05:33:49;28.70;49.30
56300;DHT22;42209;6.376;-10.782;2023-03-01T05:36:18;28.70;49.30
56300;DHT22;42209;6.376;-10.782;2023-03-01T05:38:46;28.70;49.30
56300;DHT22;42209;6.376;-10.782;2023-03-01T05:41:15;28.60;49.30
56300;DHT22;42209;6.376;-10.782;2023-03-01T05:43:43;28.70;49.30
56300;DHT22;42209;6.376;-10.782;2023-03-01T05:46:12;28.60;49.50
56300;DHT22;42209;6.376;-10.782;2023-03-01T05:48:41;28.60;49.40
56300;DHT22;42209;6.376;-10.782;2023-03-01T05:51:09;28.70;49.60
56300;DHT22;42209;6.376;-10.782;2023-03-01T05:53:37;28.60;49.60
56300;DHT22;42209;6.376;-10.782;2023-03-01T05:56:05;28.60;49.40
56300;DHT22;42209;6.376;-10.782;2023-03-01T05:58:34;28.60;49.70
56300;DHT22;42209;6.376;-10.782;2023-03-01T06:01:02;28.60;50.40
56300;DHT22;42209;6.376;-10.782;2023-03-01T06:03:33;28.60;50.10
56300;DHT22;42209;6.376;-10.782;2023-03-01T06:06:02;28.60;50.70
56300;DHT22;42209;6.376;-10.782;2023-03-01T06:08:30;28.60;50.50
56300;DHT22;42209;6.376;-10.782;2023-03-01T06:10:58;28.60;50.90
56300;DHT22;42209;6.376;-10.782;2023-03-01T06:13:27;28.60;50.50
56300;DHT22;42209;6.376;-10.782;2023-03-01T06:15:55;28.60;50.50
56300;DHT22;42209;6.376;-10.782;2023-03-01T06:18:23;28.60;50.40
56300;DHT22;42209;6.376;-10.782;2023-03-01T06:20:55;28.60;51.10
56300;DHT22;42209;6.376;-10.782;2023-03-01T06:23:24;28.60;50.90
56300;DHT22;42209;6.376;-10.782;2023-03-01T06:25:53;28.60;51.60
56300;DHT22;42209;6.376;-10.782;2023-03-01T06:28:21;28.60;51.70
56300;DHT22;42209;6.376;-10.782;2023-03-01T06:30:50;28.60;51.20
56300;DHT22;42209;6.376;-10.782;2023-03-01T06:33:19;28.60;51.30
56300;DHT22;42209;6.376;-10.782;2023-03-01T06:35:47;28.60;51.50
56300;DHT22;42209;6.376;-10.782;2023-03-01T06:38:16;28.50;51.40
56300;DHT22;42209;6.376;-10.782;2023-03-01T06:40:45;28.60;51.60
56300;DHT22;42209;6.376;-10.782;2023-03-01T06:43:19;28.60;51.50
56300;DHT22;42209;6.376;-10.782;2023-03-01T06:45:47;28.60;51.50
56300;DHT22;42209;6.376;-10.782;2023-03-01T06:48:15;28.60;51.60
56300;DHT22;42209;6.376;-10.782;2023-03-01T06:50:44;28.50;51.70
56300;DHT22;42209;6.376;-10.782;2023-03-01T06:53:12;28.60;51.40
56300;DHT22;42209;6.376;-10.782;2023-03-01T06:55:41;28.50;52.00
56300;DHT22;42209;6.376;-10.782;2023-03-01T06:58:09;28.50;51.30
56300;DHT22;42209;6.376;-10.782;2023-03-01T07:00:38;28.50;51.80
56300;DHT22;42209;6.376;-10.782;2023-03-01T07:03:06;28.50;52.10
56300;DHT22;42209;6.376;-10.782;2023-03-01T07:05:34;28.50;52.20
56300;DHT22;42209;6.376;-10.782;2023-03-01T07:08:02;28.50;52.40
56300;DHT22;42209;6.376;-10.782;2023-03-01T07:10:31;28.50;52.00
56300;DHT22;42209;6.376;-10.782;2023-03-01T07:12:59;28.50;52.20
56300;DHT22;42209;6.376;-10.782;2023-03-01T07:15:28;28.50;52.50
56300;DHT22;42209;6.376;-10.782;2023-03-01T07:17:56;28.50;52.70
56300;DHT22;42209;6.376;-10.782;2023-03-01T07:20:25;28.50;52.60
56300;DHT22;42209;6.376;-10.782;2023-03-01T07:22:54;28.50;53.10
56300;DHT22;42209;6.376;-10.782;2023-03-01T07:25:23;28.50;53.40
56300;DHT22;42209;6.376;-10.782;2023-03-01T07:27:51;28.50;53.30
56300;DHT22;42209;6.376;-10.782;2023-03-01T07:30:21;28.50;53.00
56300;DHT22;42209;6.376;-10.782;2023-03-01T07:32:49;28.50;52.40
56300;DHT22;42209;6.376;-10.782;2023-03-01T07:35:22;28.50;53.20
56300;DHT22;42209;6.376;-10.782;2023-03-01T07:37:50;28.50;53.40
56300;DHT22;42209;6.376;-10.782;2023-03-01T07:40:19;28.50;53.20
56300;DHT22;42209;6.376;-10.782;2023-03-01T07:42:47;28.50;52.90
56300;DHT22;42209;6.376;-10.782;2023-03-01T07:45:16;28.50;52.90
56300;DHT22;42209;6.376;-10.782;2023-03-01T07:47:44;28.50;52.80
56300;DHT22;42209;6.376;-10.782;2023-03-01T07:50:12;28.50;53.00
56300;DHT22;42209;6.376;-10.782;2023-03-01T07:52:40;28.40;52.60
56300;DHT22;42209;6.376;-10.782;2023-03-01T07:55:08;28.50;53.10
56300;DHT22;42209;6.376;-10.782;2023-03-01T07:57:37;28.50;52.70
56300;DHT22;42209;6.376;-10.782;2023-03-01T08:00:07;28.50;53.30
56300;DHT22;42209;6.376;-10.782;2023-03-01T08:02:38;28.40;54.10
56300;DHT22;42209;6.376;-10.782;2023-03-01T08:05:08;28.40;54.10
56300;DHT22;42209;6.376;-10.782;2023-03-01T08:07:36;28.40;54.30
56300;DHT22;42209;6.376;-10.782;2023-03-01T08:10:06;28.40;53.20
56300;DHT22;42209;6.376;-10.782;2023-03-01T08:12:35;28.40;53.70
56300;DHT22;42209;6.376;-10.782;2023-03-01T08:15:04;28.40;53.50
56300;DHT22;42209;6.376;-10.782;2023-03-01T08:17:33;28.40;53.90
56300;DHT22;42209;6.376;-10.782;2023-03-01T08:20:02;28.40;53.50
56300;DHT22;42209;6.376;-10.782;2023-03-01T08:22:31;28.40;54.00
56300;DHT22;42209;6.376;-10.782;2023-03-01T08:24:59;28.40;53.80
56300;DHT22;42209;6.376;-10.782;2023-03-01T08:27:27;28.40;53.30
56300;DHT22;42209;6.376;-10.782;2023-03-01T08:29:55;28.40;53.20
56300;DHT22;42209;6.376;-10.782;2023-03-01T08:32:23;28.40;52.80
56300;DHT22;42209;6.376;-10.782;2023-03-01T08:34:51;28.40;52.80
56300;DHT22;42209;6.376;-10.782;2023-03-01T08:37:20;28.40;52.80
56300;DHT22;42209;6.376;-10.782;2023-03-01T08:39:48;28.40;52.80
56300;DHT22;42209;6.376;-10.782;2023-03-01T08:42:16;28.40;53.30
56300;DHT22;42209;6.376;-10.782;2023-03-01T08:44:44;28.40;53.20
56300;DHT22;42209;6.376;-10.782;2023-03-01T08:47:14;28.40;53.20
56300;DHT22;42209;6.376;-10.782;2023-03-01T08:49:42;28.40;53.80
56300;DHT22;42209;6.376;-10.782;2023-03-01T08:52:10;28.40;53.40
56300;DHT22;42209;6.376;-10.782;2023-03-01T08:54:39;28.40;53.30
56300;DHT22;42209;6.376;-10.782;2023-03-01T08:57:07;28.40;52.80
56300;DHT22;42209;6.376;-10.782;2023-03-01T08:59:35;28.40;52.50
56300;DHT22;42209;6.376;-10.782;2023-03-01T09:02:12;28.40;51.90
56300;DHT22;42209;6.376;-10.782;2023-03-01T09:04:43;28.40;51.90
56300;DHT22;42209;6.376;-10.782;2023-03-01T09:07:12;28.40;51.80
56300;DHT22;42209;6.376;-10.782;2023-03-01T09:09:40;28.30;51.60
56300;DHT22;42209;6.376;-10.782;2023-03-01T09:12:08;28.40;51.90
56300;DHT22;42209;6.376;-10.782;2023-03-01T09:14:36;28.40;51.40
56300;DHT22;42209;6.376;-10.782;2023-03-01T09:17:05;28.30;51.00
56300;DHT22;42209;6.376;-10.782;2023-03-01T09:19:33;28.40;50.90
56300;DHT22;42209;6.376;-10.782;2023-03-01T09:22:03;28.40;50.90
56300;DHT22;42209;6.376;-10.782;2023-03-01T09:24:32;28.40;50.50
56300;DHT22;42209;6.376;-10.782;2023-03-01T09:27:01;28.40;50.40
56300;DHT22;42209;6.376;-10.782;2023-03-01T09:29:29;28.40;50.10
56300;DHT22;42209;6.376;-10.782;2023-03-01T09:31:57;28.40;50.20
56300;DHT22;42209;6.376;-10.782;2023-03-01T09:34:25;28.40;50.20
56300;DHT22;42209;6.376;-10.782;2023-03-01T09:36:53;28.40;49.60
56300;DHT22;42209;6.376;-10.782;2023-03-01T09:39:21;28.30;49.90
56300;DHT22;42209;6.376;-10.782;2023-03-01T09:42:01;28.30;49.90
56300;DHT22;42209;6.376;-10.782;2023-03-01T09:44:45;28.40;49.90
56300;DHT22;42209;6.376;-10.782;2023-03-01T09:47:21;28.40;49.70
56300;DHT22;42209;6.376;-10.782;2023-03-01T09:50:08;28.40;49.80
56300;DHT22;42209;6.376;-10.782;2023-03-01T09:52:47;28.30;49.30
56300;DHT22;42209;6.376;-10.782;2023-03-01T09:55:27;28.30;49.40
56300;DHT22;42209;6.376;-10.782;2023-03-01T10:01:34;28.30;49.30
56300;DHT22;42209;6.376;-10.782;2023-03-01T10:04:19;28.40;49.30
56300;DHT22;42209;6.376;-10.782;2023-03-01T10:07:26;28.40;49.50
56300;DHT22;42209;6.376;-10.782;2023-03-01T10:09:55;28.40;49.60
56300;DHT22;42209;6.376;-10.782;2023-03-01T10:12:27;28.40;49.50
56300;DHT22;42209;6.376;-10.782;2023-03-01T10:15:09;28.40;49.10
56300;DHT22;42209;6.376;-10.782;2023-03-01T10:17:41;28.40;49.30
56300;DHT22;42209;6.376;-10.782;2023-03-01T10:20:26;28.40;49.30
56300;DHT22;42209;6.376;-10.782;2023-03-01T10:22:54;28.40;49.30
56300;DHT22;42209;6.376;-10.782;2023-03-01T10:25:44;28.40;49.40
56300;DHT22;42209;6.376;-10.782;2023-03-01T10:28:21;28.40;49.40
56300;DHT22;42209;6.376;-10.782;2023-03-01T10:30:53;28.40;49.60
56300;DHT22;42209;6.376;-10.782;2023-03-01T10:33:31;28.40;49.40
56300;DHT22;42209;6.376;-10.782;2023-03-01T10:35:59;28.40;49.20
56300;DHT22;42209;6.376;-10.782;2023-03-01T10:38:31;28.40;49.20
56300;DHT22;42209;6.376;-10.782;2023-03-01T10:41:06;28.40;49.50
56300;DHT22;42209;6.376;-10.782;2023-03-01T10:43:49;28.40;49.50
56300;DHT22;42209;6.376;-10.782;2023-03-01T10:46:35;28.40;49.50
56300;DHT22;42209;6.376;-10.782;2023-03-01T10:49:14;28.40;49.40
56300;DHT22;42209;6.376;-10.782;2023-03-01T10:51:48;28.40;49.50
56300;DHT22;42209;6.376;-10.782;2023-03-01T10:54:25;28.40;49.40
56300;DHT22;42209;6.376;-10.782;2023-03-01T10:57:05;28.40;49.20
56300;DHT22;42209;6.376;-10.782;2023-03-01T10:59:36;28.40;49.30
56300;DHT22;42209;6.376;-10.782;2023-03-01T11:07:53;28.40;49.50
56300;DHT22;42209;6.376;-10.782;2023-03-01T11:10:35;28.50;49.60
56300;DHT22;42209;6.376;-10.782;2023-03-01T11:13:19;28.50;49.50
56300;DHT22;42209;6.376;-10.782;2023-03-01T11:16:07;28.40;50.00
56300;DHT22;42209;6.376;-10.782;2023-03-01T11:18:38;28.40;49.50
56300;DHT22;42209;6.376;-10.782;2023-03-01T11:21:17;28.40;49.40
56300;DHT22;42209;6.376;-10.782;2023-03-01T11:23:46;28.50;49.50
56300;DHT22;42209;6.376;-10.782;2023-03-01T11:26:15;28.50;49.30
56300;DHT22;42209;6.376;-10.782;2023-03-01T11:28:52;28.50;49.20
56300;DHT22;42209;6.376;-10.782;2023-03-01T11:31:24;28.50;49.40
56300;DHT22;42209;6.376;-10.782;2023-03-01T11:39:36;28.50;49.50
56300;DHT22;42209;6.376;-10.782;2023-03-01T11:42:27;28.50;49.50
56300;DHT22;42209;6.376;-10.782;2023-03-01T11:44:59;28.50;49.50
56300;DHT22;42209;6.376;-10.782;2023-03-01T11:50:42;28.50;49.40
56300;DHT22;42209;6.376;-10.782;2023-03-01T12:04:59;28.50;49.30
56300;DHT22;42209;6.376;-10.782;2023-03-01T12:08:01;28.50;49.20
56300;DHT22;42209;6.376;-10.782;2023-03-01T12:13:57;28.60;49.40
56300;DHT22;42209;6.376;-10.782;2023-03-01T12:19:28;28.60;49.30
56300;DHT22;42209;6.376;-10.782;2023-03-01T12:39:15;28.60;49.40
56300;DHT22;42209;6.376;-10.782;2023-03-01T12:49:57;28.60;50.00
56300;DHT22;42209;6.376;-10.782;2023-03-01T12:58:31;28.60;49.70
56300;DHT22;42209;6.376;-10.782;2023-03-01T13:06:50;28.70;49.20
56300;DHT22;42209;6.376;-10.782;2023-03-01T13:11:57;28.70;48.80
56300;DHT22;42209;6.376;-10.782;2023-03-01T13:16:54;28.70;49.20
56300;DHT22;42209;6.376;-10.782;2023-03-01T13:19:24;28.70;49.10
56300;DHT22;42209;6.376;-10.782;2023-03-01T13:21:54;28.70;49.30
56300;DHT22;42209;6.376;-10.782;2023-03-01T13:24:42;28.70;49.20
56300;DHT22;42209;6.376;-10.782;2023-03-01T13:29:57;28.70;49.30
56300;DHT22;42209;6.376;-10.782;2023-03-01T13:32:27;28.70;49.10
56300;DHT22;42209;6.376;-10.782;2023-03-01T13:37:48;28.70;49.00
56300;DHT22;42209;6.376;-10.782;2023-03-01T13:42:45;28.70;49.00
56300;DHT22;42209;6.376;-10.782;2023-03-01T13:45:39;28.80;48.60
56300;DHT22;42209;6.376;-10.782;2023-03-01T13:48:18;28.80;49.10
56300;DHT22;42209;6.376;-10.782;2023-03-01T13:51:09;28.70;49.10
56300;DHT22;42209;6.376;-10.782;2023-03-01T13:53:48;28.70;48.30
56300;DHT22;42209;6.376;-10.782;2023-03-01T13:56:24;28.80;48.30
56300;DHT22;42209;6.376;-10.782;2023-03-01T13:58:58;28.80;48.90
56300;DHT22;42209;6.376;-10.782;2023-03-01T14:01:30;28.80;48.30
56300;DHT22;42209;6.376;-10.782;2023-03-01T14:04:00;28.80;48.90
56300;DHT22;42209;6.376;-10.782;2023-03-01T14:06:31;28.80;48.10
56300;DHT22;42209;6.376;-10.782;2023-03-01T14:14:52;28.80;48.60
56300;DHT22;42209;6.376;-10.782;2023-03-01T14:20:32;28.80;48.00
56300;DHT22;42209;6.376;-10.782;2023-03-01T14:23:08;28.80;47.90
56300;DHT22;42209;6.376;-10.782;2023-03-01T14:25:38;28.80;47.50
56300;DHT22;42209;6.376;-10.782;2023-03-01T14:28:23;28.90;48.10
56300;DHT22;42209;6.376;-10.782;2023-03-01T14:30:55;28.80;48.00
56300;DHT22;42209;6.376;-10.782;2023-03-01T14:33:28;28.90;47.50
56300;DHT22;42209;6.376;-10.782;2023-03-01T14:36:25;28.80;48.00
56300;DHT22;42209;6.376;-10.782;2023-03-01T14:38:47;28.90;47.00
56300;DHT22;42209;6.376;-10.782;2023-03-01T14:41:18;28.90;47.90
56300;DHT22;42209;6.376;-10.782;2023-03-01T14:46:43;28.90;47.70
56300;DHT22;42209;6.376;-10.782;2023-03-01T14:49:20;28.90;47.30
56300;DHT22;42209;6.376;-10.782;2023-03-01T14:52:05;28.90;47.40
56300;DHT22;42209;6.376;-10.782;2023-03-01T14:54:46;28.90;47.30
56300;DHT22;42209;6.376;-10.782;2023-03-01T14:57:18;28.90;47.60
56300;DHT22;42209;6.376;-10.782;2023-03-01T14:59:47;29.00;46.90
56300;DHT22;42209;6.376;-10.782;2023-03-01T15:02:19;28.90;47.00
56300;DHT22;42209;6.376;-10.782;2023-03-01T15:04:51;28.90;47.00
56300;DHT22;42209;6.376;-10.782;2023-03-01T15:07:29;28.90;47.10
56300;DHT22;42209;6.376;-10.782;2023-03-01T15:10:02;28.90;47.40
56300;DHT22;42209;6.376;-10.782;2023-03-01T15:12:35;28.90;46.80
56300;DHT22;42209;6.376;-10.782;2023-03-01T15:17:59;29.00;46.80
56300;DHT22;42209;6.376;-10.782;2023-03-01T15:20:29;29.00;46.90
56300;DHT22;42209;6.376;-10.782;2023-03-01T15:22:58;29.00;46.50
56300;DHT22;42209;6.376;-10.782;2023-03-01T15:25:29;29.00;46.90
56300;DHT22;42209;6.376;-10.782;2023-03-01T15:28:01;29.00;47.10
56300;DHT22;42209;6.376;-10.782;2023-03-01T15:30:35;29.00;47.10
56300;DHT22;42209;6.376;-10.782;2023-03-01T15:33:19;29.00;46.60
56300;DHT22;42209;6.376;-10.782;2023-03-01T15:35:51;29.00;46.90
56300;DHT22;42209;6.376;-10.782;2023-03-01T15:41:27;29.10;46.80
56300;DHT22;42209;6.376;-10.782;2023-03-01T15:43:56;29.10;46.80
56300;DHT22;42209;6.376;-10.782;2023-03-01T15:46:33;29.10;46.80
56300;DHT22;42209;6.376;-10.782;2023-03-01T15:49:05;29.10;46.70
56300;DHT22;42209;6.376;-10.782;2023-03-01T15:51:46;29.10;46.50
56300;DHT22;42209;6.376;-10.782;2023-03-01T15:54:21;29.10;46.30
56300;DHT22;42209;6.376;-10.782;2023-03-01T15:56:50;29.20;46.30
56300;DHT22;42209;6.376;-10.782;2023-03-01T15:59:19;29.10;46.10
56300;DHT22;42209;6.376;-10.782;2023-03-01T16:01:47;29.20;46.40
56300;DHT22;42209;6.376;-10.782;2023-03-01T16:04:18;29.20;46.30
56300;DHT22;42209;6.376;-10.782;2023-03-01T16:06:47;29.20;46.20
56300;DHT22;42209;6.376;-10.782;2023-03-01T16:09:15;29.20;46.10
56300;DHT22;42209;6.376;-10.782;2023-03-01T16:11:43;29.20;46.20
56300;DHT22;42209;6.376;-10.782;2023-03-01T16:14:11;29.20;46.00
56300;DHT22;42209;6.376;-10.782;2023-03-01T16:16:40;29.20;45.90
56300;DHT22;42209;6.376;-10.782;2023-03-01T16:19:08;29.20;45.80
56300;DHT22;42209;6.376;-10.782;2023-03-01T16:21:36;29.30;45.80
56300;DHT22;42209;6.376;-10.782;2023-03-01T16:24:06;29.30;45.70
56300;DHT22;42209;6.376;-10.782;2023-03-01T16:26:35;29.30;45.60
56300;DHT22;42209;6.376;-10.782;2023-03-01T16:29:04;29.30;45.60
56300;DHT22;42209;6.376;-10.782;2023-03-01T16:31:33;29.30;45.40
56300;DHT22;42209;6.376;-10.782;2023-03-01T16:34:01;29.30;45.60
56300;DHT22;42209;6.376;-10.782;2023-03-01T16:36:29;29.40;45.30
56300;DHT22;42209;6.376;-10.782;2023-03-01T16:38:59;29.30;45.40
56300;DHT22;42209;6.376;-10.782;2023-03-01T16:41:28;29.30;45.30
56300;DHT22;42209;6.376;-10.782;2023-03-01T16:43:56;29.40;45.20
56300;DHT22;42209;6.376;-10.782;2023-03-01T16:46:27;29.40;45.30
56300;DHT22;42209;6.376;-10.782;2023-03-01T16:48:55;29.40;45.20
56300;DHT22;42209;6.376;-10.782;2023-03-01T16:51:24;29.40;45.30
56300;DHT22;42209;6.376;-10.782;2023-03-01T16:53:55;29.40;45.30
56300;DHT22;42209;6.376;-10.782;2023-03-01T16:56:24;29.40;45.20
56300;DHT22;42209;6.376;-10.782;2023-03-01T16:58:52;29.40;45.20
56300;DHT22;42209;6.376;-10.782;2023-03-01T17:01:21;29.50;45.10
56300;DHT22;42209;6.376;-10.782;2023-03-01T17:03:49;29.50;44.80
56300;DHT22;42209;6.376;-10.782;2023-03-01T17:06:20;29.40;44.90
56300;DHT22;42209;6.376;-10.782;2023-03-01T17:08:48;29.50;45.00
56300;DHT22;42209;6.376;-10.782;2023-03-01T17:11:18;29.50;44.70
56300;DHT22;42209;6.376;-10.782;2023-03-01T17:13:51;29.50;44.50
56300;DHT22;42209;6.376;-10.782;2023-03-01T17:16:21;29.50;44.50
56300;DHT22;42209;6.376;-10.782;2023-03-01T17:18:50;29.50;44.50
56300;DHT22;42209;6.376;-10.782;2023-03-01T17:21:18;29.60;44.50
56300;DHT22;42209;6.376;-10.782;2023-03-01T17:23:47;29.50;44.50
56300;DHT22;42209;6.376;-10.782;2023-03-01T17:26:16;29.60;44.30
56300;DHT22;42209;6.376;-10.782;2023-03-01T17:28:44;29.60;44.40
56300;DHT22;42209;6.376;-10.782;2023-03-01T17:31:14;29.50;44.30